sensor_id;sensor_type;location;lat;lon;timestamp;P1;durP1;ratioP1;P2;durP2;ratioP2
15273;SDS011;7738;49.532;11.156;2023-02-18T00:01:56;3.15;;;2.50;;
15273;SDS011;7738;49.532;11.156;2023-02-18T00:04:26;3.95;;;2.72;;
15273;SDS011;7738;49.532;11.156;2023-02-18T00:06:56;3.47;;;2.22;;
15273;SDS011;7738;49.532;11.156;2023-02-18T00:09:26;2.63;;;2.42;;
15273;SDS011;7738;49.532;11.156;2023-02-18T00:11:56;2.50;;;2.30;;
15273;SDS011;7738;49.532;11.156;2023-02-18T00:14:26;5.38;;;2.45;;
15273;SDS011;7738;49.532;11.156;2023-02-18T00:16:59;2.50;;;2.30;;
15273;SDS011;7738;49.532;11.156;2023-02-18T00:19:30;3.35;;;2.65;;
15273;SDS011;7738;49.532;11.156;2023-02-18T00:22:00;3.75;;;2.75;;
15273;SDS011;7738;49.532;11.156;2023-02-18T00:24:30;2.60;;;2.30;;
15273;SDS011;7738;49.532;11.156;2023-02-18T00:27:00;17.38;;;3.60;;
15273;SDS011;7738;49.532;11.156;2023-02-18T00:29:31;4.15;;;2.63;;
15273;SDS011;7738;49.532;11.156;2023-02-18T00:32:07;3.25;;;2.30;;
15273;SDS011;7738;49.532;11.156;2023-02-18T00:34:37;3.00;;;2.70;;
15273;SDS011;7738;49.532;11.156;2023-02-18T00:37:07;4.25;;;2.20;;
15273;SDS011;7738;49.532;11.156;2023-02-18T00:39:37;3.05;;;2.65;;
15273;SDS011;7738;49.532;11.156;2023-02-18T00:42:07;3.15;;;2.53;;
15273;SDS011;7738;49.532;11.156;2023-02-18T00:44:37;2.88;;;2.63;;
15273;SDS011;7738;49.532;11.156;2023-02-18T00:47:10;3.33;;;2.25;;
15273;SDS011;7738;49.532;11.156;2023-02-18T00:49:40;3.70;;;3.00;;
15273;SDS011;7738;49.532;11.156;2023-02-18T00:52:10;5.25;;;2.95;;
15273;SDS011;7738;49.532;11.156;2023-02-18T00:54:40;2.80;;;2.53;;
15273;SDS011;7738;49.532;11.156;2023-02-18T00:57:10;4.25;;;3.35;;
15273;SDS011;7738;49.532;11.156;2023-02-18T00:59:41;3.45;;;2.83;;
15273;SDS011;7738;49.532;11.156;2023-02-18T01:02:14;3.53;;;2.88;;
15273;SDS011;7738;49.532;11.156;2023-02-18T01:04:44;4.03;;;3.45;;
15273;SDS011;7738;49.532;11.156;2023-02-18T01:07:14;3.25;;;2.75;;
15273;SDS011;7738;49.532;11.156;2023-02-18T01:09:44;3.55;;;3.15;;
15273;SDS011;7738;49.532;11.156;2023-02-18T01:12:14;5.63;;;3.38;;
15273;SDS011;7738;49.532;11.156;2023-02-18T01:14:46;4.28;;;3.20;;
15273;SDS011;7738;49.532;11.156;2023-02-18T01:17:19;3.53;;;3.22;;
15273;SDS011;7738;49.532;11.156;2023-02-18T01:19:49;4.45;;;4.05;;
15273;SDS011;7738;49.532;11.156;2023-02-18T01:22:19;4.20;;;2.90;;
15273;SDS011;7738;49.532;11.156;2023-02-18T01:24:50;4.95;;;3.63;;
15273;SDS011;7738;49.532;11.156;2023-02-18T01:27:20;4.28;;;3.03;;
15273;SDS011;7738;49.532;11.156;2023-02-18T01:29:50;3.97;;;3.50;;
15273;SDS011;7738;49.532;11.156;2023-02-18T01:32:24;3.30;;;3.00;;
15273;SDS011;7738;49.532;11.156;2023-02-18T01:34:54;2.42;;;2.22;;
15273;SDS011;7738;49.532;11.156;2023-02-18T01:37:26;4.13;;;2.67;;
15273;SDS011;7738;49.532;11.156;2023-02-18T01:39:57;3.85;;;2.60;;
15273;SDS011;7738;49.532;11.156;2023-02-18T01:42:28;2.65;;;2.22;;
15273;SDS011;7738;49.532;11.156;2023-02-18T01:47:46;2.97;;;2.67;;
15273;SDS011;7738;49.532;11.156;2023-02-18T01:50:16;2.55;;;2.35;;
15273;SDS011;7738;49.532;11.156;2023-02-18T01:52:47;4.97;;;2.78;;
15273;SDS011;7738;49.532;11.156;2023-02-18T01:55:17;3.88;;;2.38;;
15273;SDS011;7738;49.532;11.156;2023-02-18T01:57:48;3.70;;;2.70;;
15273;SDS011;7738;49.532;11.156;2023-02-18T02:00:18;2.78;;;2.58;;
15273;SDS011;7738;49.532;11.156;2023-02-18T02:02:51;3.28;;;2.70;;
15273;SDS011;7738;49.532;11.156;2023-02-18T02:05:22;4.03;;;3.50;;
15273;SDS011;7738;49.532;11.156;2023-02-18T02:07:52;4.45;;;3.42;;
15273;SDS011;7738;49.532;11.156;2023-02-18T02:10:23;3.33;;;2.80;;
15273;SDS011;7738;49.532;11.156;2023-02-18T02:12:59;4.32;;;3.38;;
15273;SDS011;7738;49.532;11.156;2023-02-18T02:15:33;4.20;;;2.70;;
15273;SDS011;7738;49.532;11.156;2023-02-18T02:18:19;5.15;;;3.10;;
15273;SDS011;7738;49.532;11.156;2023-02-18T02:23:59;4.03;;;2.95;;
15273;SDS011;7738;49.532;11.156;2023-02-18T02:27:02;4.07;;;3.28;;
15273;SDS011;7738;49.532;11.156;2023-02-18T02:32:31;4.25;;;3.80;;
15273;SDS011;7738;49.532;11.156;2023-02-18T02:35:10;4.25;;;3.63;;
15273;SDS011;7738;49.532;11.156;2023-02-18T02:37:44;3.75;;;2.85;;
15273;SDS011;7738;49.532;11.156;2023-02-18T02:42:50;7.90;;;3.25;;
15273;SDS011;7738;49.532;11.156;2023-02-18T02:45:27;4.07;;;3.20;;
15273;SDS011;7738;49.532;11.156;2023-02-18T02:47:58;5.28;;;3.65;;
15273;SDS011;7738;49.532;11.156;2023-02-18T02:50:33;4.68;;;3.65;;
15273;SDS011;7738;49.532;11.156;2023-02-18T02:53:10;5.40;;;3.65;;
15273;SDS011;7738;49.532;11.156;2023-02-18T02:55:42;5.75;;;3.17;;
15273;SDS011;7738;49.532;11.156;2023-02-18T02:58:16;7.53;;;3.72;;
15273;SDS011;7738;49.532;11.156;2023-02-18T03:00:50;6.35;;;3.95;;
15273;SDS011;7738;49.532;11.156;2023-02-18T03:03:30;5.47;;;3.78;;
15273;SDS011;7738;49.532;11.156;2023-02-18T03:06:22;5.30;;;3.67;;
15273;SDS011;7738;49.532;11.156;2023-02-18T03:08:56;4.70;;;3.65;;
15273;SDS011;7738;49.532;11.156;2023-02-18T03:11:34;6.15;;;3.85;;
15273;SDS011;7738;49.532;11.156;2023-02-18T03:14:09;4.90;;;3.72;;
15273;SDS011;7738;49.532;11.156;2023-02-18T03:16:42;5.70;;;3.67;;
15273;SDS011;7738;49.532;11.156;2023-02-18T03:19:17;4.75;;;3.40;;
15273;SDS011;7738;49.532;11.156;2023-02-18T03:21:59;4.45;;;2.72;;
15273;SDS011;7738;49.532;11.156;2023-02-18T03:24:30;4.47;;;2.90;;
15273;SDS011;7738;49.532;11.156;2023-02-18T03:27:03;4.75;;;3.30;;
15273;SDS011;7738;49.532;11.156;2023-02-18T03:29:35;4.38;;;3.10;;
15273;SDS011;7738;49.532;11.156;2023-02-18T03:32:07;4.15;;;3.00;;
15273;SDS011;7738;49.532;11.156;2023-02-18T03:34:39;4.10;;;3.13;;
15273;SDS011;7738;49.532;11.156;2023-02-18T03:37:13;3.67;;;2.65;;
15273;SDS011;7738;49.532;11.156;2023-02-18T03:39:47;3.33;;;2.72;;
15273;SDS011;7738;49.532;11.156;2023-02-18T03:42:19;3.15;;;2.10;;
15273;SDS011;7738;49.532;11.156;2023-02-18T03:44:54;3.88;;;2.25;;
15273;SDS011;7738;49.532;11.156;2023-02-18T03:47:24;1.95;;;1.75;;
15273;SDS011;7738;49.532;11.156;2023-02-18T03:49:55;3.33;;;2.38;;
15273;SDS011;7738;49.532;11.156;2023-02-18T03:52:27;4.03;;;2.08;;
15273;SDS011;7738;49.532;11.156;2023-02-18T03:54:57;2.47;;;1.75;;
15273;SDS011;7738;49.532;11.156;2023-02-18T03:57:29;1.77;;;1.55;;
15273;SDS011;7738;49.532;11.156;2023-02-18T03:59:59;1.92;;;1.55;;
15273;SDS011;7738;49.532;11.156;2023-02-18T04:02:38;2.30;;;1.55;;
15273;SDS011;7738;49.532;11.156;2023-02-18T04:05:09;2.90;;;2.00;;
15273;SDS011;7738;49.532;11.156;2023-02-18T04:07:42;3.22;;;1.90;;
15273;SDS011;7738;49.532;11.156;2023-02-18T04:10:12;1.65;;;1.27;;
15273;SDS011;7738;49.532;11.156;2023-02-18T04:12:42;2.15;;;1.42;;
15273;SDS011;7738;49.532;11.156;2023-02-18T04:15:12;2.10;;;1.38;;
15273;SDS011;7738;49.532;11.156;2023-02-18T04:17:43;1.90;;;1.10;;
15273;SDS011;7738;49.532;11.156;2023-02-18T04:20:13;2.33;;;1.83;;
15273;SDS011;7738;49.532;11.156;2023-02-18T04:22:46;3.03;;;1.55;;
15273;SDS011;7738;49.532;11.156;2023-02-18T04:25:16;2.22;;;1.92;;
15273;SDS011;7738;49.532;11.156;2023-02-18T04:27:46;2.88;;;1.63;;
15273;SDS011;7738;49.532;11.156;2023-02-18T04:30:17;5.90;;;1.45;;
15273;SDS011;7738;49.532;11.156;2023-02-18T04:32:47;2.95;;;1.50;;
15273;SDS011;7738;49.532;11.156;2023-02-18T04:35:18;2.30;;;1.80;;
15273;SDS011;7738;49.532;11.156;2023-02-18T04:37:51;2.00;;;1.60;;
15273;SDS011;7738;49.532;11.156;2023-02-18T04:40:21;4.80;;;1.83;;
15273;SDS011;7738;49.532;11.156;2023-02-18T04:42:55;2.20;;;1.52;;
15273;SDS011;7738;49.532;11.156;2023-02-18T04:45:26;2.40;;;1.90;;
15273;SDS011;7738;49.532;11.156;2023-02-18T04:47:56;4.13;;;1.90;;
15273;SDS011;7738;49.532;11.156;2023-02-18T04:50:26;2.45;;;1.95;;
15273;SDS011;7738;49.532;11.156;2023-02-18T04:52:59;3.45;;;2.47;;
15273;SDS011;7738;49.532;11.156;2023-02-18T04:55:29;3.83;;;2.25;;
15273;SDS011;7738;49.532;11.156;2023-02-18T04:58:00;5.38;;;2.30;;
15273;SDS011;7738;49.532;11.156;2023-02-18T05:00:30;5.03;;;2.53;;
15273;SDS011;7738;49.532;11.156;2023-02-18T05:03:00;2.70;;;1.80;;
15273;SDS011;7738;49.532;11.156;2023-02-18T05:05:30;3.08;;;2.22;;
15273;SDS011;7738;49.532;11.156;2023-02-18T05:08:04;3.72;;;2.35;;
15273;SDS011;7738;49.532;11.156;2023-02-18T05:10:34;5.53;;;2.45;;
15273;SDS011;7738;49.532;11.156;2023-02-18T05:13:06;2.75;;;2.33;;
15273;SDS011;7738;49.532;11.156;2023-02-18T05:15:36;3.80;;;2.55;;
15273;SDS011;7738;49.532;11.156;2023-02-18T05:18:06;4.10;;;2.55;;
15273;SDS011;7738;49.532;11.156;2023-02-18T05:20:36;4.75;;;3.33;;
15273;SDS011;7738;49.532;11.156;2023-02-18T05:23:09;5.25;;;3.83;;
15273;SDS011;7738;49.532;11.156;2023-02-18T05:25:40;4.40;;;3.45;;
15273;SDS011;7738;49.532;11.156;2023-02-18T05:28:10;4.65;;;3.22;;
15273;SDS011;7738;49.532;11.156;2023-02-18T05:30:40;3.67;;;3.25;;
15273;SDS011;7738;49.532;11.156;2023-02-18T05:33:11;7.18;;;4.30;;
15273;SDS011;7738;49.532;11.156;2023-02-18T05:35:41;5.95;;;3.70;;
15273;SDS011;7738;49.532;11.156;2023-02-18T05:38:14;7.40;;;3.88;;
15273;SDS011;7738;49.532;11.156;2023-02-18T05:40:44;4.43;;;3.72;;
15273;SDS011;7738;49.532;11.156;2023-02-18T05:43:15;6.20;;;4.25;;
15273;SDS011;7738;49.532;11.156;2023-02-18T05:45:48;6.07;;;4.05;;
15273;SDS011;7738;49.532;11.156;2023-02-18T05:48:18;6.22;;;3.78;;
15273;SDS011;7738;49.532;11.156;2023-02-18T05:50:48;6.32;;;4.45;;
15273;SDS011;7738;49.532;11.156;2023-02-18T05:53:22;7.65;;;4.25;;
15273;SDS011;7738;49.532;11.156;2023-02-18T05:55:52;5.45;;;3.78;;
15273;SDS011;7738;49.532;11.156;2023-02-18T05:58:22;7.35;;;4.38;;
15273;SDS011;7738;49.532;11.156;2023-02-18T06:00:52;6.40;;;4.18;;
15273;SDS011;7738;49.532;11.156;2023-02-18T06:03:23;7.88;;;4.75;;
15273;SDS011;7738;49.532;11.156;2023-02-18T06:05:53;6.28;;;4.53;;
15273;SDS011;7738;49.532;11.156;2023-02-18T06:08:26;8.70;;;4.70;;
15273;SDS011;7738;49.532;11.156;2023-02-18T06:10:56;7.72;;;5.00;;
15273;SDS011;7738;49.532;11.156;2023-02-18T06:13:26;9.05;;;5.50;;
15273;SDS011;7738;49.532;11.156;2023-02-18T06:15:56;7.95;;;4.93;;
15273;SDS011;7738;49.532;11.156;2023-02-18T06:18:26;6.65;;;4.57;;
15273;SDS011;7738;49.532;11.156;2023-02-18T06:20:57;8.13;;;4.80;;
15273;SDS011;7738;49.532;11.156;2023-02-18T06:23:29;6.47;;;4.38;;
15273;SDS011;7738;49.532;11.156;2023-02-18T06:26:00;7.07;;;4.80;;
15273;SDS011;7738;49.532;11.156;2023-02-18T06:28:30;7.55;;;4.70;;
15273;SDS011;7738;49.532;11.156;2023-02-18T06:31:00;8.18;;;5.78;;
15273;SDS011;7738;49.532;11.156;2023-02-18T06:33:31;7.05;;;4.78;;
15273;SDS011;7738;49.532;11.156;2023-02-18T06:36:02;8.30;;;4.93;;
15273;SDS011;7738;49.532;11.156;2023-02-18T06:38:37;9.88;;;5.15;;
15273;SDS011;7738;49.532;11.156;2023-02-18T06:41:07;8.57;;;5.78;;
15273;SDS011;7738;49.532;11.156;2023-02-18T06:43:38;12.25;;;5.13;;
15273;SDS011;7738;49.532;11.156;2023-02-18T06:46:08;7.05;;;5.07;;
15273;SDS011;7738;49.532;11.156;2023-02-18T06:48:38;7.03;;;5.38;;
15273;SDS011;7738;49.532;11.156;2023-02-18T06:51:08;7.50;;;5.45;;
15273;SDS011;7738;49.532;11.156;2023-02-18T06:53:42;8.30;;;5.82;;
15273;SDS011;7738;49.532;11.156;2023-02-18T06:56:12;6.97;;;5.30;;
15273;SDS011;7738;49.532;11.156;2023-02-18T06:58:42;7.43;;;5.18;;
15273;SDS011;7738;49.532;11.156;2023-02-18T07:01:13;8.60;;;5.50;;
15273;SDS011;7738;49.532;11.156;2023-02-18T07:03:43;7.28;;;4.70;;
15273;SDS011;7738;49.532;11.156;2023-02-18T07:06:15;5.93;;;5.20;;
15273;SDS011;7738;49.532;11.156;2023-02-18T07:08:48;8.93;;;5.70;;
15273;SDS011;7738;49.532;11.156;2023-02-18T07:11:18;7.18;;;5.00;;
15273;SDS011;7738;49.532;11.156;2023-02-18T07:13:49;8.45;;;5.22;;
15273;SDS011;7738;49.532;11.156;2023-02-18T07:16:19;8.05;;;5.15;;
15273;SDS011;7738;49.532;11.156;2023-02-18T07:18:49;7.15;;;5.78;;
15273;SDS011;7738;49.532;11.156;2023-02-18T07:21:19;9.18;;;6.18;;
15273;SDS011;7738;49.532;11.156;2023-02-18T07:23:52;8.77;;;5.90;;
15273;SDS011;7738;49.532;11.156;2023-02-18T07:26:22;9.98;;;6.38;;
15273;SDS011;7738;49.532;11.156;2023-02-18T07:28:53;8.60;;;6.07;;
15273;SDS011;7738;49.532;11.156;2023-02-18T07:31:23;9.85;;;5.63;;
15273;SDS011;7738;49.532;11.156;2023-02-18T07:33:53;8.57;;;6.38;;
15273;SDS011;7738;49.532;11.156;2023-02-18T07:36:23;11.07;;;6.60;;
15273;SDS011;7738;49.532;11.156;2023-02-18T07:38:56;8.45;;;7.45;;
15273;SDS011;7738;49.532;11.156;2023-02-18T07:41:27;8.75;;;6.43;;
15273;SDS011;7738;49.532;11.156;2023-02-18T07:43:57;8.65;;;6.72;;
15273;SDS011;7738;49.532;11.156;2023-02-18T07:46:27;9.95;;;7.82;;
15273;SDS011;7738;49.532;11.156;2023-02-18T07:48:57;11.02;;;7.60;;
15273;SDS011;7738;49.532;11.156;2023-02-18T07:51:27;9.45;;;7.13;;
15273;SDS011;7738;49.532;11.156;2023-02-18T07:54:00;11.70;;;7.25;;
15273;SDS011;7738;49.532;11.156;2023-02-18T07:56:31;8.23;;;6.88;;
15273;SDS011;7738;49.532;11.156;2023-02-18T07:59:01;11.07;;;7.30;;
15273;SDS011;7738;49.532;11.156;2023-02-18T08:01:31;9.27;;;7.43;;
15273;SDS011;7738;49.532;11.156;2023-02-18T08:04:02;10.63;;;8.30;;
15273;SDS011;7738;49.532;11.156;2023-02-18T08:06:33;8.68;;;6.47;;
15273;SDS011;7738;49.532;11.156;2023-02-18T08:09:06;12.10;;;7.13;;
15273;SDS011;7738;49.532;11.156;2023-02-18T08:11:36;13.13;;;7.22;;
15273;SDS011;7738;49.532;11.156;2023-02-18T08:14:07;11.07;;;7.07;;
15273;SDS011;7738;49.532;11.156;2023-02-18T08:16:37;11.90;;;6.85;;
15273;SDS011;7738;49.532;11.156;2023-02-18T08:19:07;7.47;;;6.50;;
15273;SDS011;7738;49.532;11.156;2023-02-18T08:21:38;8.45;;;7.10;;
15273;SDS011;7738;49.532;11.156;2023-02-18T08:24:10;8.10;;;6.22;;
15273;SDS011;7738;49.532;11.156;2023-02-18T08:26:41;8.13;;;5.82;;
15273;SDS011;7738;49.532;11.156;2023-02-18T08:29:25;8.02;;;6.18;;
15273;SDS011;7738;49.532;11.156;2023-02-18T08:31:55;8.20;;;6.22;;
15273;SDS011;7738;49.532;11.156;2023-02-18T08:34:26;8.35;;;5.93;;
15273;SDS011;7738;49.532;11.156;2023-02-18T08:36:56;8.45;;;5.90;;
15273;SDS011;7738;49.532;11.156;2023-02-18T08:39:29;8.45;;;5.90;;
15273;SDS011;7738;49.532;11.156;2023-02-18T08:42:05;6.97;;;5.05;;
15273;SDS011;7738;49.532;11.156;2023-02-18T08:44:35;8.07;;;6.22;;
15273;SDS011;7738;49.532;11.156;2023-02-18T08:47:05;5.43;;;4.47;;
15273;SDS011;7738;49.532;11.156;2023-02-18T08:49:56;6.75;;;5.88;;
15273;SDS011;7738;49.532;11.156;2023-02-18T08:52:26;5.78;;;4.60;;
15273;SDS011;7738;49.532;11.156;2023-02-18T08:54:59;5.93;;;4.85;;
15273;SDS011;7738;49.532;11.156;2023-02-18T08:57:29;5.93;;;4.78;;
15273;SDS011;7738;49.532;11.156;2023-02-18T09:00:00;7.93;;;4.75;;
15273;SDS011;7738;49.532;11.156;2023-02-18T09:02:31;6.55;;;4.32;;
15273;SDS011;7738;49.532;11.156;2023-02-18T09:05:01;6.03;;;5.30;;
15273;SDS011;7738;49.532;11.156;2023-02-18T09:07:32;19.77;;;4.63;;
15273;SDS011;7738;49.532;11.156;2023-02-18T09:10:05;6.45;;;4.40;;
15273;SDS011;7738;49.532;11.156;2023-02-18T09:12:35;5.82;;;4.55;;
15273;SDS011;7738;49.532;11.156;2023-02-18T09:15:06;4.85;;;4.07;;
15273;SDS011;7738;49.532;11.156;2023-02-18T09:17:36;8.20;;;4.20;;
15273;SDS011;7738;49.532;11.156;2023-02-18T09:20:07;4.47;;;3.80;;
15273;SDS011;7738;49.532;11.156;2023-02-18T09:22:38;5.43;;;3.90;;
15273;SDS011;7738;49.532;11.156;2023-02-18T09:25:11;4.50;;;3.92;;
15273;SDS011;7738;49.532;11.156;2023-02-18T09:27:41;4.53;;;3.45;;
15273;SDS011;7738;49.532;11.156;2023-02-18T09:30:12;6.70;;;3.60;;
15273;SDS011;7738;49.532;11.156;2023-02-18T09:32:42;8.40;;;3.22;;
15273;SDS011;7738;49.532;11.156;2023-02-18T09:35:12;4.03;;;3.20;;
15273;SDS011;7738;49.532;11.156;2023-02-18T09:37:43;3.95;;;2.80;;
15273;SDS011;7738;49.532;11.156;2023-02-18T09:40:23;5.45;;;3.53;;
15273;SDS011;7738;49.532;11.156;2023-02-18T09:42:55;14.35;;;3.85;;
15273;SDS011;7738;49.532;11.156;2023-02-18T09:45:26;6.40;;;2.80;;
15273;SDS011;7738;49.532;11.156;2023-02-18T09:47:56;5.60;;;3.05;;
15273;SDS011;7738;49.532;11.156;2023-02-18T09:50:27;3.97;;;3.22;;
15273;SDS011;7738;49.532;11.156;2023-02-18T09:53:00;4.50;;;2.97;;
15273;SDS011;7738;49.532;11.156;2023-02-18T09:55:34;5.95;;;2.70;;
15273;SDS011;7738;49.532;11.156;2023-02-18T09:58:07;4.63;;;3.15;;
15273;SDS011;7738;49.532;11.156;2023-02-18T10:00:42;4.85;;;2.80;;
15273;SDS011;7738;49.532;11.156;2023-02-18T10:03:15;6.45;;;2.63;;
15273;SDS011;7738;49.532;11.156;2023-02-18T10:05:49;3.65;;;2.25;;
15273;SDS011;7738;49.532;11.156;2023-02-18T10:10:55;4.72;;;2.72;;
15273;SDS011;7738;49.532;11.156;2023-02-18T10:13:27;6.47;;;2.65;;
15273;SDS011;7738;49.532;11.156;2023-02-18T10:15:59;2.97;;;2.63;;
15273;SDS011;7738;49.532;11.156;2023-02-18T10:18:30;5.00;;;2.28;;
15273;SDS011;7738;49.532;11.156;2023-02-18T10:21:05;6.32;;;2.55;;
15273;SDS011;7738;49.532;11.156;2023-02-18T10:23:39;4.68;;;2.00;;
15273;SDS011;7738;49.532;11.156;2023-02-18T10:26:24;7.30;;;2.22;;
15273;SDS011;7738;49.532;11.156;2023-02-18T10:28:55;5.07;;;2.67;;
15273;SDS011;7738;49.532;11.156;2023-02-18T10:31:27;4.57;;;2.47;;
15273;SDS011;7738;49.532;11.156;2023-02-18T10:34:03;4.30;;;2.25;;
15273;SDS011;7738;49.532;11.156;2023-02-18T10:36:40;6.35;;;2.22;;
15273;SDS011;7738;49.532;11.156;2023-02-18T10:39:18;2.85;;;1.90;;
15273;SDS011;7738;49.532;11.156;2023-02-18T10:42:08;3.85;;;2.00;;
15273;SDS011;7738;49.532;11.156;2023-02-18T10:44:50;3.80;;;2.42;;
15273;SDS011;7738;49.532;11.156;2023-02-18T10:47:36;4.22;;;2.35;;
15273;SDS011;7738;49.532;11.156;2023-02-18T10:50:09;4.10;;;2.35;;
15273;SDS011;7738;49.532;11.156;2023-02-18T10:52:42;3.25;;;2.53;;
15273;SDS011;7738;49.532;11.156;2023-02-18T10:55:14;2.80;;;1.88;;
15273;SDS011;7738;49.532;11.156;2023-02-18T10:57:50;6.00;;;2.42;;
15273;SDS011;7738;49.532;11.156;2023-02-18T11:00:24;4.28;;;2.30;;
15273;SDS011;7738;49.532;11.156;2023-02-18T11:03:12;4.00;;;2.47;;
15273;SDS011;7738;49.532;11.156;2023-02-18T11:05:45;2.90;;;1.98;;
15273;SDS011;7738;49.532;11.156;2023-02-18T11:08:19;3.60;;;2.58;;
15273;SDS011;7738;49.532;11.156;2023-02-18T11:10:51;3.78;;;2.22;;
15273;SDS011;7738;49.532;11.156;2023-02-18T11:13:25;2.50;;;1.75;;
15273;SDS011;7738;49.532;11.156;2023-02-18T11:15:59;3.65;;;2.30;;
15273;SDS011;7738;49.532;11.156;2023-02-18T11:18:34;4.07;;;2.40;;
15273;SDS011;7738;49.532;11.156;2023-02-18T11:21:17;5.03;;;2.58;;
15273;SDS011;7738;49.532;11.156;2023-02-18T11:23:52;3.60;;;2.00;;
15273;SDS011;7738;49.532;11.156;2023-02-18T11:26:25;3.83;;;2.17;;
15273;SDS011;7738;49.532;11.156;2023-02-18T11:29:03;4.97;;;1.90;;
15273;SDS011;7738;49.532;11.156;2023-02-18T11:31:40;3.30;;;1.63;;
15273;SDS011;7738;49.532;11.156;2023-02-18T11:34:14;2.85;;;2.22;;
15273;SDS011;7738;49.532;11.156;2023-02-18T11:36:47;4.25;;;2.63;;
15273;SDS011;7738;49.532;11.156;2023-02-18T11:39:19;3.88;;;2.58;;
15273;SDS011;7738;49.532;11.156;2023-02-18T11:41:55;4.38;;;1.77;;
15273;SDS011;7738;49.532;11.156;2023-02-18T11:44:30;4.78;;;2.17;;
15273;SDS011;7738;49.532;11.156;2023-02-18T11:47:03;2.35;;;1.90;;
15273;SDS011;7738;49.532;11.156;2023-02-18T11:49:34;4.15;;;2.50;;
15273;SDS011;7738;49.532;11.156;2023-02-18T11:52:11;2.47;;;2.20;;
15273;SDS011;7738;49.532;11.156;2023-02-18T11:54:57;3.03;;;2.10;;
15273;SDS011;7738;49.532;11.156;2023-02-18T11:57:30;3.50;;;2.28;;
15273;SDS011;7738;49.532;11.156;2023-02-18T12:00:06;4.88;;;2.13;;
15273;SDS011;7738;49.532;11.156;2023-02-18T12:02:49;2.38;;;1.95;;
15273;SDS011;7738;49.532;11.156;2023-02-18T12:05:21;2.55;;;1.95;;
15273;SDS011;7738;49.532;11.156;2023-02-18T12:07:55;2.47;;;2.08;;
15273;SDS011;7738;49.532;11.156;2023-02-18T12:10:30;3.65;;;2.20;;
15273;SDS011;7738;49.532;11.156;2023-02-18T12:13:04;2.50;;;2.13;;
15273;SDS011;7738;49.532;11.156;2023-02-18T12:15:45;2.63;;;2.35;;
15273;SDS011;7738;49.532;11.156;2023-02-18T12:18:26;2.88;;;1.98;;
15273;SDS011;7738;49.532;11.156;2023-02-18T12:21:16;2.83;;;1.60;;
15273;SDS011;7738;49.532;11.156;2023-02-18T12:23:57;4.15;;;2.33;;
15273;SDS011;7738;49.532;11.156;2023-02-18T12:26:35;6.53;;;1.83;;
15273;SDS011;7738;49.532;11.156;2023-02-18T12:29:21;2.58;;;1.83;;
15273;SDS011;7738;49.532;11.156;2023-02-18T12:32:10;3.33;;;2.05;;
15273;SDS011;7738;49.532;11.156;2023-02-18T12:34:56;2.30;;;1.75;;
15273;SDS011;7738;49.532;11.156;2023-02-18T12:37:51;2.45;;;1.50;;
15273;SDS011;7738;49.532;11.156;2023-02-18T12:40:38;2.03;;;1.45;;
15273;SDS011;7738;49.532;11.156;2023-02-18T12:43:21;2.47;;;2.13;;
15273;SDS011;7738;49.532;11.156;2023-02-18T12:46:05;3.30;;;2.47;;
15273;SDS011;7738;49.532;11.156;2023-02-18T12:49:08;3.47;;;2.20;;
15273;SDS011;7738;49.532;11.156;2023-02-18T12:52:07;4.88;;;2.05;;
15273;SDS011;7738;49.532;11.156;2023-02-18T12:54:49;2.90;;;2.03;;
15273;SDS011;7738;49.532;11.156;2023-02-18T12:57:31;2.92;;;2.00;;
15273;SDS011;7738;49.532;11.156;2023-02-18T13:03:11;3.83;;;1.52;;
15273;SDS011;7738;49.532;11.156;2023-02-18T13:06:05;4.00;;;1.80;;
15273;SDS011;7738;49.532;11.156;2023-02-18T13:08:48;3.58;;;1.70;;
15273;SDS011;7738;49.532;11.156;2023-02-18T13:11:30;2.75;;;1.75;;
15273;SDS011;7738;49.532;11.156;2023-02-18T13:14:08;3.08;;;2.03;;
15273;SDS011;7738;49.532;11.156;2023-02-18T13:16:42;3.13;;;1.75;;
15273;SDS011;7738;49.532;11.156;2023-02-18T13:19:17;4.55;;;1.60;;
15273;SDS011;7738;49.532;11.156;2023-02-18T13:21:53;4.07;;;2.03;;
15273;SDS011;7738;49.532;11.156;2023-02-18T13:24:28;2.50;;;1.88;;
15273;SDS011;7738;49.532;11.156;2023-02-18T13:27:12;1.92;;;1.58;;
15273;SDS011;7738;49.532;11.156;2023-02-18T13:29:49;2.90;;;1.80;;
15273;SDS011;7738;49.532;11.156;2023-02-18T13:32:27;3.58;;;1.73;;
15273;SDS011;7738;49.532;11.156;2023-02-18T13:35:05;2.28;;;1.65;;
15273;SDS011;7738;49.532;11.156;2023-02-18T13:37:51;2.40;;;1.60;;
15273;SDS011;7738;49.532;11.156;2023-02-18T13:40:31;1.75;;;1.25;;
15273;SDS011;7738;49.532;11.156;2023-02-18T13:48:39;2.83;;;1.40;;
15273;SDS011;7738;49.532;11.156;2023-02-18T13:51:13;2.63;;;1.90;;
15273;SDS011;7738;49.532;11.156;2023-02-18T13:53:51;1.90;;;1.60;;
15273;SDS011;7738;49.532;11.156;2023-02-18T13:56:26;2.83;;;1.90;;
15273;SDS011;7738;49.532;11.156;2023-02-18T13:58:58;2.15;;;1.23;;
15273;SDS011;7738;49.532;11.156;2023-02-18T14:01:45;3.83;;;2.00;;
15273;SDS011;7738;49.532;11.156;2023-02-18T14:07:24;4.35;;;1.98;;
15273;SDS011;7738;49.532;11.156;2023-02-18T14:10:23;2.60;;;1.70;;
15273;SDS011;7738;49.532;11.156;2023-02-18T14:13:16;8.70;;;2.00;;
15273;SDS011;7738;49.532;11.156;2023-02-18T14:16:07;2.78;;;2.10;;
15273;SDS011;7738;49.532;11.156;2023-02-18T14:21:37;3.70;;;2.08;;
15273;SDS011;7738;49.532;11.156;2023-02-18T14:24:10;5.32;;;2.72;;
15273;SDS011;7738;49.532;11.156;2023-02-18T14:26:47;3.30;;;2.35;;
15273;SDS011;7738;49.532;11.156;2023-02-18T14:29:20;5.45;;;1.58;;
15273;SDS011;7738;49.532;11.156;2023-02-18T14:31:56;2.20;;;1.65;;
15273;SDS011;7738;49.532;11.156;2023-02-18T14:37:36;4.20;;;2.40;;
15273;SDS011;7738;49.532;11.156;2023-02-18T14:40:46;2.38;;;1.88;;
15273;SDS011;7738;49.532;11.156;2023-02-18T14:43:51;3.15;;;2.28;;
15273;SDS011;7738;49.532;11.156;2023-02-18T14:46:39;2.42;;;2.10;;
15273;SDS011;7738;49.532;11.156;2023-02-18T14:49:23;3.85;;;2.50;;
15273;SDS011;7738;49.532;11.156;2023-02-18T14:52:04;3.95;;;2.90;;
15273;SDS011;7738;49.532;11.156;2023-02-18T14:54:39;5.03;;;3.22;;
15273;SDS011;7738;49.532;11.156;2023-02-18T14:57:12;3.28;;;2.75;;
15273;SDS011;7738;49.532;11.156;2023-02-18T14:59:48;5.25;;;3.38;;
15273;SDS011;7738;49.532;11.156;2023-02-18T15:02:28;4.35;;;3.20;;
15273;SDS011;7738;49.532;11.156;2023-02-18T15:05:07;5.55;;;2.85;;
15273;SDS011;7738;49.532;11.156;2023-02-18T15:07:53;4.03;;;3.60;;
15273;SDS011;7738;49.532;11.156;2023-02-18T15:10:29;5.20;;;3.10;;
15273;SDS011;7738;49.532;11.156;2023-02-18T15:13:08;5.20;;;3.80;;
15273;SDS011;7738;49.532;11.156;2023-02-18T15:15:46;4.40;;;3.25;;
15273;SDS011;7738;49.532;11.156;2023-02-18T15:18:21;5.38;;;3.65;;
15273;SDS011;7738;49.532;11.156;2023-02-18T15:20:55;5.18;;;3.60;;
15273;SDS011;7738;49.532;11.156;2023-02-18T15:23:25;6.68;;;4.05;;
15273;SDS011;7738;49.532;11.156;2023-02-18T15:25:56;5.03;;;3.38;;
15273;SDS011;7738;49.532;11.156;2023-02-18T15:28:27;5.00;;;3.30;;
15273;SDS011;7738;49.532;11.156;2023-02-18T15:31:02;4.95;;;2.90;;
15273;SDS011;7738;49.532;11.156;2023-02-18T15:33:33;4.53;;;3.53;;
15273;SDS011;7738;49.532;11.156;2023-02-18T15:36:04;6.20;;;3.35;;
15273;SDS011;7738;49.532;11.156;2023-02-18T15:38:35;4.70;;;2.90;;
15273;SDS011;7738;49.532;11.156;2023-02-18T15:41:09;5.28;;;3.38;;
15273;SDS011;7738;49.532;11.156;2023-02-18T15:43:50;5.72;;;3.10;;
15273;SDS011;7738;49.532;11.156;2023-02-18T15:46:24;4.57;;;3.13;;
15273;SDS011;7738;49.532;11.156;2023-02-18T15:48:55;5.93;;;3.85;;
15273;SDS011;7738;49.532;11.156;2023-02-18T15:51:26;4.70;;;3.45;;
15273;SDS011;7738;49.532;11.156;2023-02-18T15:53:59;6.60;;;3.75;;
15273;SDS011;7738;49.532;11.156;2023-02-18T15:56:32;5.55;;;3.33;;
15273;SDS011;7738;49.532;11.156;2023-02-18T15:59:13;4.35;;;3.22;;
15273;SDS011;7738;49.532;11.156;2023-02-18T16:01:50;5.35;;;3.08;;